createdAt,value
2017-10-01T00:00:48.056Z,11.23
2017-10-01T00:03:16.300Z,14.20
2017-10-01T00:05:43.760Z,11.30
2017-10-01T00:08:11.248Z,10.97
2017-10-01T00:10:38.720Z,12.00
2017-10-01T00:13:06.188Z,13.30
2017-10-01T00:15:34.462Z,15.73
2017-10-01T00:18:03.439Z,11.87
2017-10-01T00:20:31.039Z,11.70
2017-10-01T00:22:58.495Z,9.53
2017-10-01T00:25:26.909Z,10.67
2017-10-01T00:27:54.474Z,9.40
2017-10-01T00:30:21.933Z,6.73
2017-10-01T00:32:49.506Z,11.93
2017-10-01T00:35:17.727Z,9.20
2017-10-01T00:37:45.197Z,12.33
2017-10-01T00:40:13.452Z,7.40
2017-10-01T00:42:40.926Z,10.03
2017-10-01T00:45:08.400Z,8.73
2017-10-01T00:47:35.861Z,9.33
2017-10-01T00:50:03.471Z,9.80
2017-10-01T00:52:31.104Z,8.47
2017-10-01T00:54:59.336Z,10.10
2017-10-01T00:57:26.811Z,8.67
2017-10-01T00:59:54.279Z,8.27
2017-10-01T01:02:22.542Z,8.20
2017-10-01T01:04:50.023Z,9.70
2017-10-01T01:07:17.611Z,7.90
2017-10-01T01:09:45.082Z,9.20
2017-10-01T01:12:12.535Z,9.33
2017-10-01T01:14:40.026Z,8.80
2017-10-01T01:17:07.587Z,10.20
2017-10-01T01:19:35.836Z,8.20
2017-10-01T01:22:03.341Z,8.10
2017-10-01T01:24:30.838Z,7.43
2017-10-01T01:26:59.073Z,10.03
2017-10-01T01:29:26.581Z,8.37
2017-10-01T01:31:54.151Z,8.87
2017-10-01T01:34:21.607Z,9.40
2017-10-01T01:36:49.080Z,10.50
2017-10-01T01:39:16.568Z,9.77
2017-10-01T01:41:44.148Z,8.83
2017-10-01T01:44:12.381Z,9.83
2017-10-01T01:46:39.830Z,11.80
2017-10-01T01:49:07.320Z,10.63
2017-10-01T01:51:34.792Z,9.73
2017-10-01T01:54:03.039Z,6.40
2017-10-01T01:56:30.493Z,9.70
2017-10-01T01:58:58.063Z,6.70
2017-10-01T02:01:26.346Z,9.13
2017-10-01T02:03:54.616Z,8.07
2017-10-01T02:06:22.086Z,7.77
2017-10-01T02:08:50.328Z,7.50
2017-10-01T02:11:18.570Z,7.80
2017-10-01T02:13:46.039Z,6.40
2017-10-01T02:16:13.636Z,8.23
2017-10-01T02:18:41.101Z,9.70
2017-10-01T02:21:08.568Z,10.97
2017-10-01T02:23:36.817Z,9.93
2017-10-01T02:26:04.297Z,8.60
2017-10-01T02:28:31.997Z,9.90
2017-10-01T02:31:00.227Z,8.07
2017-10-01T02:33:28.472Z,13.10
2017-10-01T02:35:55.961Z,9.97
2017-10-01T02:38:24.186Z,8.80
2017-10-01T02:40:51.736Z,10.13
2017-10-01T02:43:19.217Z,9.40
2017-10-01T02:45:46.805Z,8.67
2017-10-01T02:48:14.402Z,10.33
2017-10-01T02:50:41.867Z,7.77
2017-10-01T02:53:09.348Z,8.17
2017-10-01T02:55:37.562Z,6.87
2017-10-01T02:58:05.042Z,7.77
2017-10-01T03:00:32.511Z,6.83
2017-10-01T03:03:00.097Z,9.47
2017-10-01T03:05:28.317Z,6.87
2017-10-01T03:07:55.764Z,6.93
2017-10-01T03:10:24.030Z,7.77
2017-10-01T03:12:51.504Z,6.13
2017-10-01T03:15:19.112Z,9.33
2017-10-01T03:17:46.581Z,9.63
2017-10-01T03:20:14.056Z,6.60
2017-10-01T03:22:41.530Z,7.70
2017-10-01T03:25:09.754Z,7.83
2017-10-01T03:27:37.979Z,7.33
2017-10-01T03:30:06.238Z,7.23
2017-10-01T03:32:33.733Z,6.83
2017-10-01T03:35:01.179Z,6.80
2017-10-01T03:37:28.654Z,8.63
2017-10-01T03:39:56.107Z,7.33
2017-10-01T03:42:23.602Z,6.53
2017-10-01T03:44:51.864Z,6.90
2017-10-01T03:47:19.362Z,8.13
2017-10-01T03:49:47.614Z,6.80
2017-10-01T03:52:15.087Z,6.67
2017-10-01T03:54:43.307Z,8.40
2017-10-01T03:57:11.561Z,7.90
2017-10-01T03:59:39.792Z,6.00
2017-10-01T04:02:07.362Z,7.37
2017-10-01T04:04:34.826Z,7.70
2017-10-01T04:07:03.074Z,7.53
2017-10-01T04:09:30.606Z,9.20
2017-10-01T04:11:58.879Z,7.87
2017-10-01T04:14:26.357Z,8.30
2017-10-01T04:16:53.864Z,10.00
2017-10-01T04:19:21.343Z,8.17
2017-10-01T04:21:48.811Z,8.53
2017-10-01T04:24:16.276Z,9.20
2017-10-01T04:26:43.749Z,8.30
2017-10-01T04:29:11.222Z,10.20
2017-10-01T04:31:38.686Z,9.90
2017-10-01T04:34:06.288Z,8.60
2017-10-01T04:36:33.864Z,11.70
2017-10-01T04:39:01.353Z,9.77
2017-10-01T04:41:28.810Z,9.47
2017-10-01T04:43:57.058Z,16.40
2017-10-01T04:46:24.578Z,10.53
2017-10-01T04:48:52.830Z,10.27
2017-10-01T04:51:20.291Z,12.90
2017-10-01T04:53:47.775Z,13.70
2017-10-01T04:56:15.236Z,12.57
2017-10-01T04:58:42.752Z,14.97
2017-10-01T05:01:10.359Z,15.43
2017-10-01T05:03:37.899Z,9.97
2017-10-01T05:06:05.408Z,11.00
2017-10-01T05:08:33.839Z,13.87
2017-10-01T05:11:02.143Z,9.00
2017-10-01T05:13:29.607Z,8.10
2017-10-01T05:15:57.871Z,7.60
2017-10-01T05:18:25.360Z,9.90
2017-10-01T05:20:52.846Z,8.90
2017-10-01T05:23:20.337Z,10.30
2017-10-01T05:25:47.817Z,9.40
2017-10-01T05:28:15.303Z,11.73
2017-10-01T05:30:42.778Z,9.23
2017-10-01T05:33:10.299Z,9.30
2017-10-01T05:35:38.538Z,10.50
2017-10-01T05:38:06.345Z,12.17
2017-10-01T05:40:34.011Z,10.77
2017-10-01T05:43:01.485Z,11.60
2017-10-01T05:45:28.993Z,10.83
2017-10-01T05:47:56.442Z,8.77
2017-10-01T05:50:23.936Z,17.07
2017-10-01T05:52:51.535Z,9.43
2017-10-01T05:55:19.023Z,9.70
2017-10-01T05:57:46.492Z,8.23
2017-10-01T06:00:13.964Z,13.10
2017-10-01T06:02:41.446Z,9.80
2017-10-01T06:05:09.688Z,8.70
2017-10-01T06:07:37.175Z,10.70
2017-10-01T06:10:04.631Z,11.80
2017-10-01T06:12:32.212Z,12.47
2017-10-01T06:14:59.688Z,10.00
2017-10-01T06:17:27.171Z,16.23
2017-10-01T06:19:54.639Z,10.07
2017-10-01T06:22:22.122Z,10.80
2017-10-01T06:24:49.593Z,9.87
2017-10-01T06:27:17.068Z,13.17
2017-10-01T06:29:45.339Z,13.10
2017-10-01T06:32:12.809Z,13.30
2017-10-01T06:34:40.262Z,13.40
2017-10-01T06:37:07.762Z,15.73
2017-10-01T06:39:36.231Z,12.10
2017-10-01T06:42:03.850Z,14.80
2017-10-01T06:44:31.317Z,11.30
2017-10-01T06:46:59.552Z,14.03
2017-10-01T06:49:27.017Z,15.07
2017-10-01T06:51:54.483Z,14.37
2017-10-01T06:54:21.989Z,17.63
2017-10-01T06:56:49.555Z,14.83
2017-10-01T06:59:17.143Z,16.73
2017-10-01T07:01:44.619Z,16.23
2017-10-01T07:04:12.095Z,16.53
2017-10-01T07:06:42.380Z,17.37
2017-10-01T07:09:09.856Z,16.20
2017-10-01T07:11:37.337Z,17.37
2017-10-01T07:14:04.796Z,13.47
2017-10-01T07:16:32.520Z,19.07
2017-10-01T07:18:59.979Z,20.37
2017-10-01T07:21:27.468Z,15.40
2017-10-01T07:23:54.979Z,15.03
2017-10-01T07:26:22.471Z,18.70
2017-10-01T07:28:50.780Z,18.63
2017-10-01T07:31:19.131Z,21.30
2017-10-01T07:33:46.607Z,28.10
2017-10-01T07:36:14.210Z,16.53
2017-10-01T07:38:41.730Z,18.77
2017-10-01T07:41:09.976Z,17.50
2017-10-01T07:43:37.451Z,15.93
2017-10-01T07:46:04.939Z,20.17
2017-10-01T07:48:32.397Z,29.37
2017-10-01T07:50:59.893Z,19.73
2017-10-01T07:53:27.386Z,16.93
2017-10-01T07:55:54.897Z,15.13
2017-10-01T07:58:22.362Z,16.83
2017-10-01T08:00:49.849Z,22.33
2017-10-01T08:03:18.301Z,21.33
2017-10-01T08:05:46.563Z,17.37
2017-10-01T08:08:14.198Z,20.00
2017-10-01T08:10:41.645Z,25.40
2017-10-01T08:13:09.129Z,14.40
2017-10-01T08:15:36.607Z,18.80
2017-10-01T08:18:04.121Z,19.00
2017-10-01T08:20:31.735Z,21.53
2017-10-01T08:22:59.211Z,19.10
2017-10-01T08:25:26.711Z,20.70
2017-10-01T08:27:54.271Z,21.03
2017-10-01T08:30:21.761Z,23.13
2017-10-01T08:32:49.243Z,20.87
2017-10-01T08:35:16.739Z,24.47
2017-10-01T08:37:44.199Z,25.40
2017-10-01T08:40:11.890Z,27.97
2017-10-01T08:42:40.854Z,28.93
2017-10-01T08:45:08.397Z,27.10
2017-10-01T08:47:36.640Z,27.43
2017-10-01T08:50:04.906Z,24.60
2017-10-01T08:52:32.539Z,25.90
2017-10-01T08:55:01.690Z,31.90
2017-10-01T08:57:29.325Z,25.73
2017-10-01T08:59:56.856Z,32.03
2017-10-01T09:02:25.136Z,27.23
2017-10-01T09:04:53.444Z,29.90
2017-10-01T09:07:21.671Z,30.23
2017-10-01T09:09:50.010Z,27.93
2017-10-01T09:12:17.480Z,29.47
2017-10-01T09:14:44.975Z,30.53
2017-10-01T09:17:13.544Z,35.93
2017-10-01T09:19:41.162Z,31.60
2017-10-01T09:22:08.642Z,30.63
2017-10-01T09:24:36.130Z,30.50
2017-10-01T09:27:03.651Z,27.87
2017-10-01T09:29:32.105Z,28.67
2017-10-01T09:31:59.605Z,30.60
2017-10-01T09:34:27.095Z,27.33
2017-10-01T09:36:54.561Z,24.97
2017-10-01T09:39:22.069Z,29.20
2017-10-01T09:41:49.540Z,25.80
2017-10-01T09:44:17.029Z,28.13
2017-10-01T09:46:46.004Z,26.87
2017-10-01T09:49:13.613Z,27.20
2017-10-01T09:51:41.106Z,30.03
2017-10-01T09:54:08.614Z,24.17
2017-10-01T09:56:36.873Z,27.87
2017-10-01T09:59:04.343Z,28.80
2017-10-01T10:01:32.075Z,25.93
2017-10-01T10:03:59.548Z,32.17
2017-10-01T10:06:27.031Z,25.50
2017-10-01T10:08:54.522Z,22.70
2017-10-01T10:11:22.003Z,28.23
2017-10-01T10:13:49.514Z,26.27
2017-10-01T10:16:17.747Z,24.87
2017-10-01T10:18:45.241Z,25.80
2017-10-01T10:21:12.771Z,28.50
2017-10-01T10:23:40.277Z,30.90
2017-10-01T10:26:08.513Z,25.53
2017-10-01T10:28:36.042Z,26.53
2017-10-01T10:31:03.540Z,24.40
2017-10-01T10:33:31.814Z,26.50
2017-10-01T10:35:59.304Z,26.40
2017-10-01T10:38:26.781Z,29.47
2017-10-01T10:40:54.449Z,25.50
2017-10-01T10:43:21.941Z,25.20
2017-10-01T10:45:49.415Z,28.70
2017-10-01T10:48:16.934Z,24.73
2017-10-01T10:50:45.330Z,25.63
2017-10-01T10:53:13.670Z,26.53
2017-10-01T10:55:41.149Z,26.13
2017-10-01T10:58:08.640Z,19.80
2017-10-01T11:00:36.137Z,21.13
2017-10-01T11:03:04.555Z,19.53
2017-10-01T11:05:32.287Z,21.67
2017-10-01T11:07:59.776Z,27.37
2017-10-01T11:10:27.230Z,22.70
2017-10-01T11:12:54.715Z,21.73
2017-10-01T11:15:22.187Z,21.07
2017-10-01T11:17:49.691Z,25.67
2017-10-01T11:20:17.146Z,23.73
2017-10-01T11:22:44.645Z,22.23
2017-10-01T11:25:12.241Z,21.20
2017-10-01T11:27:39.841Z,19.77
2017-10-01T11:30:08.086Z,21.60
2017-10-01T11:32:35.651Z,21.73
2017-10-01T11:35:03.143Z,16.90
2017-10-01T11:37:30.648Z,20.97
2017-10-01T11:39:58.197Z,24.47
2017-10-01T11:42:26.463Z,19.27
2017-10-01T11:44:54.138Z,18.70
2017-10-01T11:47:21.618Z,24.67
2017-10-01T11:49:49.083Z,24.10
2017-10-01T11:52:16.579Z,27.77
2017-10-01T11:54:44.052Z,18.97
2017-10-01T11:57:12.011Z,18.27
2017-10-01T11:59:39.503Z,23.43
2017-10-01T12:02:06.965Z,23.13
2017-10-01T12:04:35.225Z,17.83
2017-10-01T12:07:02.795Z,19.87
2017-10-01T12:09:30.285Z,15.13
2017-10-01T12:11:57.755Z,18.77
2017-10-01T12:14:25.325Z,20.67
2017-10-01T12:16:52.858Z,17.90
2017-10-01T12:19:20.360Z,23.27
2017-10-01T12:21:48.612Z,16.60
2017-10-01T12:24:16.076Z,23.50
2017-10-01T12:26:43.681Z,21.23
2017-10-01T12:29:11.162Z,19.57
2017-10-01T12:31:38.653Z,14.97
2017-10-01T12:34:06.144Z,16.63
2017-10-01T12:36:33.896Z,19.70
2017-10-01T12:39:01.372Z,15.20
2017-10-01T12:41:28.895Z,19.33
2017-10-01T12:43:56.362Z,15.33
2017-10-01T12:46:23.861Z,13.90
2017-10-01T12:48:51.395Z,19.87
2017-10-01T12:51:18.874Z,19.63
2017-10-01T12:53:46.371Z,23.30
2017-10-01T12:56:13.984Z,20.90
2017-10-01T12:58:41.525Z,17.60
2017-10-01T13:01:08.994Z,23.30
2017-10-01T13:03:37.268Z,24.20
2017-10-01T13:06:04.730Z,23.80
2017-10-01T13:08:32.242Z,20.50
2017-10-01T13:10:59.723Z,22.17
2017-10-01T13:13:27.341Z,16.37
2017-10-01T13:15:55.644Z,17.40
2017-10-01T13:18:23.891Z,13.53
2017-10-01T13:20:51.453Z,13.73
2017-10-01T13:23:18.933Z,17.20
2017-10-01T13:25:46.442Z,14.20
2017-10-01T13:28:14.030Z,13.80
2017-10-01T13:30:41.645Z,17.93
2017-10-01T13:33:09.988Z,19.50
2017-10-01T13:35:38.279Z,16.57
2017-10-01T13:38:05.835Z,13.10
2017-10-01T13:40:33.343Z,16.27
2017-10-01T13:43:01.718Z,13.30
2017-10-01T13:45:29.954Z,14.47
2017-10-01T13:47:57.459Z,14.43
2017-10-01T13:50:24.955Z,15.80
2017-10-01T13:52:52.480Z,17.37
2017-10-01T13:55:20.741Z,20.27
2017-10-01T13:57:48.989Z,17.07
2017-10-01T14:00:17.389Z,15.70
2017-10-01T14:02:44.859Z,17.00
2017-10-01T14:05:18.162Z,16.70
2017-10-01T14:07:45.639Z,21.67
2017-10-01T14:10:13.172Z,14.23
2017-10-01T14:12:41.415Z,12.17
2017-10-01T14:15:09.030Z,20.67
2017-10-01T14:17:36.616Z,14.40
2017-10-01T14:20:04.070Z,14.50
2017-10-01T14:22:32.380Z,13.00
2017-10-01T14:24:59.864Z,15.10
2017-10-01T14:27:27.355Z,14.90
2017-10-01T14:29:54.837Z,14.93
2017-10-01T14:32:22.305Z,18.10
2017-10-01T14:34:49.909Z,18.83
2017-10-01T14:37:17.398Z,18.87
2017-10-01T14:39:44.875Z,14.37
2017-10-01T14:42:12.767Z,16.00
2017-10-01T14:44:40.415Z,19.20
2017-10-01T14:47:07.924Z,15.50
2017-10-01T14:49:35.422Z,17.97
2017-10-01T14:52:04.529Z,14.80
2017-10-01T14:54:32.038Z,16.23
2017-10-01T14:57:00.267Z,12.20
2017-10-01T14:59:27.776Z,17.43
2017-10-01T15:01:55.270Z,16.23
2017-10-01T15:04:22.783Z,15.63
2017-10-01T15:06:50.251Z,20.10
2017-10-01T15:09:17.845Z,15.77
2017-10-01T15:11:45.333Z,13.03
2017-10-01T15:14:12.826Z,14.43
2017-10-01T15:16:40.335Z,19.73
2017-10-01T15:19:07.824Z,21.03
2017-10-01T15:21:36.160Z,17.73
2017-10-01T15:24:03.642Z,19.87
2017-10-01T15:26:31.128Z,17.10
2017-10-01T15:28:58.632Z,20.40
2017-10-01T15:31:26.884Z,18.83
2017-10-01T15:33:54.451Z,20.30
2017-10-01T15:36:21.947Z,18.13
2017-10-01T15:38:49.545Z,17.77
2017-10-01T15:41:17.062Z,19.27
2017-10-01T15:43:44.541Z,22.20
2017-10-01T15:46:12.179Z,20.10
2017-10-01T15:48:39.664Z,21.40
2017-10-01T15:51:07.204Z,18.33
2017-10-01T15:53:35.540Z,19.63
2017-10-01T15:56:03.030Z,22.77
2017-10-01T15:58:30.519Z,19.47
2017-10-01T16:00:58.009Z,19.87
2017-10-01T16:03:25.519Z,19.97
2017-10-01T16:05:53.024Z,26.87
2017-10-01T16:08:21.405Z,19.87
2017-10-01T16:10:48.903Z,24.80
2017-10-01T16:13:16.391Z,18.80
2017-10-01T16:15:43.960Z,18.87
2017-10-01T16:18:11.454Z,15.80
2017-10-01T16:20:39.713Z,16.30
2017-10-01T16:23:07.201Z,21.60
2017-10-01T16:25:34.814Z,20.53
2017-10-01T16:28:02.325Z,24.60
2017-10-01T16:30:29.811Z,22.20
2017-10-01T16:32:58.044Z,20.40
2017-10-01T16:35:25.560Z,26.33
2017-10-01T16:37:53.066Z,24.03
2017-10-01T16:40:21.332Z,25.13
2017-10-01T16:42:48.809Z,23.17
2017-10-01T16:45:16.369Z,22.10
2017-10-01T16:47:43.867Z,23.20
2017-10-01T16:50:11.353Z,21.80
2017-10-01T16:52:38.955Z,24.00
2017-10-01T16:55:06.470Z,21.60
2017-10-01T16:57:34.959Z,23.27
2017-10-01T17:00:02.570Z,19.40
2017-10-01T17:02:30.827Z,20.97
2017-10-01T17:04:58.552Z,24.37
2017-10-01T17:07:26.794Z,23.37
2017-10-01T17:09:54.265Z,31.07
2017-10-01T17:12:21.772Z,22.40
2017-10-01T17:14:49.246Z,27.80
2017-10-01T17:17:16.744Z,21.57
2017-10-01T17:19:44.233Z,25.10
2017-10-01T17:22:11.808Z,22.07
2017-10-01T17:24:39.308Z,26.17
2017-10-01T17:27:06.791Z,24.67
2017-10-01T17:29:34.407Z,24.40
2017-10-01T17:32:02.644Z,22.40
2017-10-01T17:34:30.123Z,22.27
2017-10-01T17:36:57.585Z,22.90
2017-10-01T17:39:25.084Z,24.07
2017-10-01T17:41:52.613Z,21.20
2017-10-01T17:44:20.091Z,23.53
2017-10-01T17:46:47.593Z,22.43
2017-10-01T17:49:15.888Z,25.73
2017-10-01T17:51:43.372Z,25.00
2017-10-01T17:54:10.847Z,25.00
2017-10-01T17:56:39.107Z,30.80
2017-10-01T17:59:06.602Z,27.50
2017-10-01T18:01:34.334Z,24.80
2017-10-01T18:04:02.613Z,24.40
2017-10-01T18:06:30.105Z,25.77
2017-10-01T18:08:58.375Z,29.40
2017-10-01T18:11:25.845Z,30.87
2017-10-01T18:13:54.117Z,22.10
2017-10-01T18:16:21.732Z,28.53
2017-10-01T18:18:49.257Z,24.80
2017-10-01T18:21:17.507Z,33.27
2017-10-01T18:23:44.981Z,27.40
2017-10-01T18:26:12.742Z,32.83
2017-10-01T18:28:40.445Z,26.97
2017-10-01T18:31:07.961Z,23.87
2017-10-01T18:33:35.607Z,25.37
2017-10-01T18:36:03.081Z,28.17
2017-10-01T18:38:31.332Z,29.87
2017-10-01T18:40:58.816Z,26.90
2017-10-01T18:43:27.190Z,26.70
2017-10-01T18:45:54.822Z,24.97
2017-10-01T18:48:23.074Z,25.13
2017-10-01T18:50:50.557Z,27.60
2017-10-01T18:53:18.785Z,28.53
2017-10-01T18:55:46.809Z,28.80
2017-10-01T18:58:15.209Z,21.83
2017-10-01T19:00:42.733Z,27.37
2017-10-01T19:03:10.339Z,34.73
2017-10-01T19:05:37.990Z,25.80
2017-10-01T19:08:05.567Z,24.60
2017-10-01T19:10:33.809Z,25.93
2017-10-01T19:13:01.303Z,20.50
2017-10-01T19:15:28.783Z,24.00
2017-10-01T19:17:56.270Z,26.03
2017-10-01T19:20:23.734Z,24.20
2017-10-01T19:22:51.222Z,27.10
2017-10-01T19:25:19.000Z,25.13
2017-10-01T19:27:46.512Z,27.13
2017-10-01T19:30:15.054Z,24.90
2017-10-01T19:32:42.597Z,23.83
2017-10-01T19:35:10.099Z,29.77
2017-10-01T19:37:37.592Z,26.43
2017-10-01T19:40:05.086Z,28.23
2017-10-01T19:42:33.528Z,29.77
2017-10-01T19:45:00.998Z,33.10
2017-10-01T19:47:29.338Z,34.87
2017-10-01T19:49:56.836Z,34.87
2017-10-01T19:52:24.326Z,36.37
2017-10-01T19:54:51.847Z,31.43
2017-10-01T19:57:19.376Z,30.00
2017-10-01T19:59:46.864Z,30.30
2017-10-01T20:02:14.431Z,28.23
2017-10-01T20:04:41.904Z,32.07
2017-10-01T20:07:09.371Z,34.20
2017-10-01T20:09:37.654Z,32.03
2017-10-01T20:12:05.912Z,39.03
2017-10-01T20:14:34.359Z,37.27
2017-10-01T20:17:01.903Z,39.17
2017-10-01T20:19:29.481Z,39.33
2017-10-01T20:21:56.942Z,36.27
2017-10-01T20:24:25.208Z,36.70
2017-10-01T20:26:53.619Z,35.40
2017-10-01T20:29:21.106Z,42.27
2017-10-01T20:31:48.617Z,42.43
2017-10-01T20:34:16.112Z,38.37
2017-10-01T20:36:43.590Z,42.10
2017-10-01T20:39:11.079Z,40.30
2017-10-01T20:41:38.559Z,35.03
2017-10-01T20:44:06.073Z,42.57
2017-10-01T20:46:33.548Z,41.73
2017-10-01T20:49:01.014Z,38.17
2017-10-01T20:51:28.509Z,40.00
2017-10-01T20:53:56.010Z,39.33
2017-10-01T20:56:23.518Z,35.97
2017-10-01T20:58:51.762Z,36.97
2017-10-01T21:01:19.995Z,39.10
2017-10-01T21:03:47.498Z,42.67
2017-10-01T21:06:15.727Z,39.07
2017-10-01T21:08:43.209Z,34.57
2017-10-01T21:11:11.477Z,35.77
2017-10-01T21:13:39.739Z,35.13
2017-10-01T21:16:07.206Z,33.97
2017-10-01T21:18:35.087Z,36.93
2017-10-01T21:21:02.586Z,32.83
2017-10-01T21:23:30.063Z,35.97
2017-10-01T21:25:57.568Z,35.83
2017-10-01T21:28:25.698Z,34.33
2017-10-01T21:30:53.203Z,29.17
2017-10-01T21:33:20.728Z,33.50
2017-10-01T21:35:49.087Z,34.70
2017-10-01T21:38:16.573Z,36.07
2017-10-01T21:40:44.050Z,34.90
2017-10-01T21:43:11.539Z,34.23
2017-10-01T21:45:39.006Z,31.77
2017-10-01T21:48:06.493Z,32.60
2017-10-01T21:50:34.082Z,34.27
2017-10-01T21:53:02.622Z,30.93
2017-10-01T21:55:30.074Z,34.77
2017-10-01T21:57:57.556Z,39.27
2017-10-01T22:00:25.041Z,29.37
2017-10-01T22:02:52.609Z,34.13
2017-10-01T22:05:20.101Z,38.17
2017-10-01T22:07:47.607Z,31.23
2017-10-01T22:10:15.150Z,28.27
2017-10-01T22:12:42.607Z,28.90
2017-10-01T22:15:10.876Z,30.23
2017-10-01T22:17:38.368Z,30.77
2017-10-01T22:20:05.831Z,33.90
2017-10-01T22:22:33.327Z,30.27
2017-10-01T22:25:00.782Z,29.57
2017-10-01T22:27:28.276Z,31.63
2017-10-01T22:29:56.516Z,36.07
2017-10-01T22:32:24.782Z,34.10
2017-10-01T22:34:52.438Z,32.67
2017-10-01T22:37:19.901Z,38.10
2017-10-01T22:39:48.157Z,35.40
2017-10-01T22:42:15.617Z,40.73
2017-10-01T22:44:43.099Z,38.93
2017-10-01T22:47:10.564Z,40.60
2017-10-01T22:49:38.056Z,40.40
2017-10-01T22:52:05.524Z,42.83
2017-10-01T22:54:33.082Z,42.37
2017-10-01T22:57:00.547Z,38.90
2017-10-01T22:59:28.121Z,37.40
2017-10-01T23:01:55.596Z,39.43
2017-10-01T23:04:23.838Z,45.33
2017-10-01T23:06:52.097Z,40.27
2017-10-01T23:09:19.554Z,41.40
2017-10-01T23:11:47.035Z,39.40
2017-10-01T23:14:14.495Z,42.13
2017-10-01T23:16:42.852Z,39.83
2017-10-01T23:19:10.325Z,37.07
2017-10-01T23:21:37.801Z,40.20
2017-10-01T23:24:05.306Z,41.17
2017-10-01T23:26:32.788Z,33.53
2017-10-01T23:29:00.270Z,34.77
2017-10-01T23:31:27.730Z,33.60
2017-10-01T23:33:55.252Z,32.13
2017-10-01T23:36:23.518Z,32.43
2017-10-01T23:38:50.979Z,31.03
2017-10-01T23:41:18.578Z,32.00
2017-10-01T23:43:46.210Z,31.27
2017-10-01T23:46:13.819Z,27.73
2017-10-01T23:48:42.058Z,30.03
2017-10-01T23:51:09.540Z,30.00
2017-10-01T23:53:37.050Z,35.40
2017-10-01T23:56:04.532Z,29.30
2017-10-01T23:58:32.900Z,35.27
